Time;durP1;ratioP1;P1;durP2;ratioP2;P2;SDS_P1;SDS_P2;PMS_P1;PMS_P2;Temp;Humidity;BMP_temperature;BMP_pressure;BME280_temperature;BME280_humidity;BME280_pressure;Samples;Min_cycle;Max_cycle;Signal;HPM_P1;HPM_P2
2023/09/02 00:02:12;;;;;;;13.70;6.73;;;;;;;18.10;67.74;100877.08;125600;1102;102103;-82
2023/09/02 00:04:43;;;;;;;14.00;6.00;;;;;;;18.09;67.75;100872.62;124787;1102;104217;-81
2023/09/02 00:07:15;;;;;;;12.97;6.27;;;;;;;18.08;67.66;100877.06;124845;1102;102416;-81
2023/09/02 00:09:46;;;;;;;13.03;6.10;;;;;;;18.06;67.57;100880.56;124729;1102;109488;-81
2023/09/02 00:12:17;;;;;;;15.07;6.50;;;;;;;18.05;67.32;100887.65;124812;1102;104230;-81
2023/09/02 00:14:48;;;;;;;16.13;6.40;;;;;;;18.04;67.71;100883.20;124854;1102;104186;-81
2023/09/02 00:17:20;;;;;;;13.03;6.87;;;;;;;18.03;67.75;100886.75;124738;1102;104187;-82
2023/09/02 00:19:51;;;;;;;13.63;6.07;;;;;;;18.00;67.71;100880.49;124785;1102;104173;-81
2023/09/02 00:22:22;;;;;;;13.87;6.77;;;;;;;17.95;67.70;100881.35;124872;1101;104201;-82
2023/09/02 00:24:54;;;;;;;13.13;6.47;;;;;;;17.90;68.04;100885.73;124873;1102;102093;-81
2023/09/02 00:27:25;;;;;;;16.30;6.50;;;;;;;17.85;68.08;100884.72;124773;1102;101999;-81
2023/09/02 00:29:57;;;;;;;12.73;6.80;;;;;;;17.83;67.88;100874.98;124746;1102;102102;-82
2023/09/02 00:32:29;;;;;;;14.80;6.40;;;;;;;17.80;68.13;100878.48;124769;1102;104176;-79
2023/09/02 00:35:00;;;;;;;14.33;6.50;;;;;;;17.76;68.19;100873.99;124695;1102;101907;-81
2023/09/02 00:37:31;;;;;;;14.37;6.53;;;;;;;17.77;68.52;100870.48;124789;1102;104265;-80
2023/09/02 00:40:03;;;;;;;15.27;6.60;;;;;;;17.75;69.07;100877.55;124742;1102;104345;-83
2023/09/02 00:42:35;;;;;;;12.87;6.30;;;;;;;17.73;68.92;100881.92;124737;1101;104178;-80
2023/09/02 00:45:09;;;;;;;13.07;6.20;;;;;;;17.68;68.95;100886.29;124698;1102;104288;-80
2023/09/02 00:47:41;;;;;;;14.65;6.10;;;;;;;17.65;69.60;100889.78;124711;1102;104169;-80
2023/09/02 00:50:12;;;;;;;14.30;6.17;;;;;;;17.59;69.49;100892.35;124798;1102;104195;-80
2023/09/02 00:52:44;;;;;;;13.17;6.67;;;;;;;17.57;69.77;100891.45;124841;1102;102614;-83
2023/09/02 00:55:16;;;;;;;17.90;9.13;;;;;;;17.56;69.69;100892.31;124787;1102;102207;-86
2023/09/02 00:57:47;;;;;;;17.70;8.97;;;;;;;17.55;69.91;100888.78;125951;1102;101881;-82
2023/09/02 01:00:20;;;;;;;23.23;10.87;;;;;;;17.56;70.05;100893.23;124815;1102;104323;-83
2023/09/02 01:02:52;;;;;;;;;;;;;;;17.53;71.10;100887.87;124897;1102;104166;-81
2023/09/02 01:05:24;;;;;;;25.50;12.63;;;;;;;17.48;70.51;100892.20;124825;1102;104169;-79
2023/09/02 01:07:56;;;;;;;22.40;12.33;;;;;;;17.44;70.36;100885.09;124824;1102;104077;-81
2023/09/02 01:10:28;;;;;;;21.27;12.07;;;;;;;17.41;70.21;100888.59;124793;1102;102028;-80
2023/09/02 01:13:01;;;;;;;18.77;10.87;;;;;;;17.41;70.29;100890.36;124828;1102;104223;-79
2023/09/02 01:15:33;;;;;;;16.90;9.75;;;;;;;17.37;70.49;100892.09;124884;1102;103107;-78
2023/09/02 01:18:05;;;;;;;19.27;9.93;;;;;;;17.34;70.35;100881.44;124824;1099;103277;-81
2023/09/02 01:20:57;;;;;;;16.80;9.40;;;;;;;17.33;70.36;100886.72;124786;1102;104332;-80
2023/09/02 01:23:57;;;;;;;17.90;8.70;;;;;;;17.37;70.36;100885.88;124777;1101;102054;-82
2023/09/02 01:26:51;;;;;;;17.20;8.40;;;;;;;17.41;70.06;100885.05;124877;1102;104191;-81
2023/09/02 01:29:26;;;;;;;16.80;7.53;;;;;;;17.42;70.36;100886.81;125198;1102;101858;-80
2023/09/02 01:31:57;;;;;;;15.40;7.90;;;;;;;17.39;70.55;100890.34;124855;1102;102048;-82
2023/09/02 01:34:34;;;;;;;14.53;7.33;;;;;;;17.39;70.17;100894.73;124812;1102;102033;-81
2023/09/02 01:37:09;;;;;;;17.73;6.93;;;;;;;17.37;70.66;100900.05;124839;1101;104248;-82
2023/09/02 01:39:43;;;;;;;16.17;6.93;;;;;;;17.34;70.54;100897.35;124773;1102;104235;-82
2023/09/02 01:42:15;;;;;;;14.93;6.73;;;;;;;17.31;70.61;100896.39;124867;1102;104249;-82
2023/09/02 01:44:47;;;;;;;15.80;7.33;;;;;;;17.29;70.30;100895.48;124814;1101;104178;-83
2023/09/02 01:47:19;;;;;;;14.57;7.17;;;;;;;17.25;70.94;100903.41;124822;1102;104287;-84
2023/09/02 01:49:51;;;;;;;16.00;7.30;;;;;;;17.21;70.90;100898.91;125363;1102;102149;-84
2023/09/02 01:52:24;;;;;;;14.90;6.90;;;;;;;17.17;71.18;100894.45;124921;1102;102231;-83
2023/09/02 01:54:56;;;;;;;13.23;6.53;;;;;;;17.17;71.25;100897.10;125026;1101;102224;-84
2023/09/02 01:57:28;;;;;;;14.57;6.30;;;;;;;17.17;71.61;100898.84;125203;1102;104181;-83
2023/09/02 02:00:00;;;;;;;13.13;6.70;;;;;;;17.15;71.72;100900.59;125225;1102;104326;-82
2023/09/02 02:02:32;;;;;;;16.00;7.07;;;;;;;17.17;71.34;100897.10;125393;1102;102099;-83
2023/09/02 02:05:06;;;;;;;13.60;6.60;;;;;;;17.17;71.64;100910.36;125457;1102;104198;-83
2023/09/02 02:07:42;;;;;;;16.37;7.00;;;;;;;17.18;71.61;100904.16;125455;1102;104172;-82
2023/09/02 02:10:16;;;;;;;13.60;6.23;;;;;;;17.19;71.60;100905.96;124960;1102;104252;-84
2023/09/02 02:12:48;;;;;;;14.57;7.17;;;;;;;17.14;72.17;100899.70;125457;1102;104187;-84
2023/09/02 02:15:19;;;;;;;15.83;6.40;;;;;;;17.11;71.94;100906.70;125575;1102;102159;-84
2023/09/02 02:17:51;;;;;;;11.70;6.60;;;;;;;17.03;72.00;100915.45;124765;1102;104176;-84
2023/09/02 02:20:22;;;;;;;13.93;6.70;;;;;;;17.00;71.97;100906.53;124804;1102;104200;-85
2023/09/02 02:22:54;;;;;;;13.13;6.87;;;;;;;16.95;72.73;100913.53;124817;1102;104331;-83
2023/09/02 02:25:26;;;;;;;14.23;7.20;;;;;;;16.88;73.73;100909.89;126499;1102;104060;-86
2023/09/02 02:27:57;;;;;;;18.47;7.47;;;;;;;16.79;74.73;100912.36;124876;1102;102131;-85
2023/09/02 02:30:28;;;;;;;14.33;7.60;;;;;;;16.70;74.11;100907.78;124914;1102;102506;-86
2023/09/02 02:33:00;;;;;;;14.97;7.50;;;;;;;16.63;74.73;100906.80;124874;1102;101919;-83
2023/09/02 02:35:34;;;;;;;14.50;6.60;;;;;;;16.59;74.89;100912.01;124951;1102;102032;-84
2023/09/02 02:38:05;;;;;;;13.90;6.93;;;;;;;16.57;74.85;100914.63;124800;1102;104233;-85
2023/09/02 02:40:37;;;;;;;19.67;6.93;;;;;;;16.56;74.60;100911.95;124834;1102;104203;-81
2023/09/02 02:43:08;;;;;;;13.37;6.63;;;;;;;16.53;74.73;100911.05;124833;1102;104178;-81
2023/09/02 02:45:40;;;;;;;15.37;6.90;;;;;;;16.51;75.09;100915.40;124767;1102;104304;-81
2023/09/02 02:48:15;;;;;;;12.53;6.53;;;;;;;16.49;75.19;100918.91;124854;1102;101948;-82
2023/09/02 02:50:46;;;;;;;15.17;7.13;;;;;;;16.46;75.03;100918.85;124755;1102;104241;-82
2023/09/02 02:53:18;;;;;;;12.90;7.13;;;;;;;16.43;75.33;100913.50;124797;1102;104220;-82
2023/09/02 02:55:49;;;;;;;15.43;6.97;;;;;;;16.42;74.90;100920.53;124910;1102;104307;-82
2023/09/02 02:58:21;;;;;;;14.07;6.90;;;;;;;16.42;75.42;100917.88;124855;1102;104181;-83
2023/09/02 03:01:04;;;;;;;14.03;6.83;;;;;;;16.42;75.86;100915.23;124906;1102;102004;-82
2023/09/02 03:03:36;;;;;;;13.80;6.67;;;;;;;16.41;74.86;100917.85;124923;1101;102109;-83
2023/09/02 03:06:08;;;;;;;14.13;7.03;;;;;;;16.45;74.89;100925.00;124841;1102;102111;-82
2023/09/02 03:08:40;;;;;;;13.70;7.00;;;;;;;16.46;75.29;100926.80;124849;1102;104175;-83
2023/09/02 03:11:11;;;;;;;14.17;6.57;;;;;;;16.43;75.53;100921.45;124903;1102;104178;-86
2023/09/02 03:13:44;;;;;;;15.07;6.80;;;;;;;16.40;74.69;100918.73;124848;1102;104172;-84
2023/09/02 03:16:19;;;;;;;13.03;6.67;;;;;;;16.39;74.66;100911.65;124768;1102;102294;-83
2023/09/02 03:18:52;;;;;;;12.90;6.60;;;;;;;16.38;75.29;100928.39;125102;1102;102217;-83
2023/09/02 03:21:23;;;;;;;13.20;6.50;;;;;;;16.38;74.96;100928.39;124796;1102;102059;-81
2023/09/02 03:23:55;;;;;;;13.80;6.47;;;;;;;16.39;75.52;100920.47;124773;1103;102056;-82
2023/09/02 03:26:27;;;;;;;13.93;6.20;;;;;;;16.40;75.58;100930.21;124795;1102;104300;-82
2023/09/02 03:28:59;;;;;;;13.03;6.57;;;;;;;16.42;75.39;100917.00;124672;1101;104279;-82
2023/09/02 03:31:30;;;;;;;17.93;6.93;;;;;;;16.44;75.49;100923.20;124737;1102;104096;-81
2023/09/02 03:34:02;;;;;;;19.13;6.93;;;;;;;16.44;75.24;100918.83;124760;1102;101889;-81
2023/09/02 03:36:34;;;;;;;14.75;6.70;;;;;;;16.44;75.29;100923.20;124815;1102;101812;-83
2023/09/02 03:39:06;;;;;;;12.37;6.63;;;;;;;16.45;75.85;100919.70;124878;1102;102071;-83
2023/09/02 03:41:38;;;;;;;15.93;7.23;;;;;;;16.47;75.22;100916.23;124791;1102;103167;-84
2023/09/02 03:44:09;;;;;;;15.87;7.27;;;;;;;16.49;75.37;100922.44;124871;1102;104092;-83
2023/09/02 03:46:41;;;;;;;16.87;7.53;;;;;;;16.50;75.38;100926.88;124818;1102;104291;-83
2023/09/02 03:49:12;;;;;;;14.73;7.50;;;;;;;16.50;75.69;100921.59;124827;1102;104188;-81
2023/09/02 03:51:44;;;;;;;17.27;8.13;;;;;;;16.53;75.61;100920.73;124855;1102;102229;-83
2023/09/02 03:54:15;;;;;;;16.30;7.10;;;;;;;16.54;75.47;100934.00;124758;1102;108239;-83
2023/09/02 03:56:47;;;;;;;15.73;7.37;;;;;;;16.54;74.93;100925.17;124850;1102;104178;-83
2023/09/02 03:59:19;;;;;;;18.27;7.53;;;;;;;16.56;75.29;100930.50;124764;1102;104207;-83
2023/09/02 04:01:50;;;;;;;13.97;7.10;;;;;;;16.57;75.22;100929.64;124831;1102;102022;-81
2023/09/02 04:04:22;;;;;;;14.10;7.17;;;;;;;16.58;75.66;100931.41;124805;1102;104185;-81
2023/09/02 04:06:53;;;;;;;16.70;7.67;;;;;;;16.59;75.74;100931.44;124821;1102;101894;-82
2023/09/02 04:09:24;;;;;;;14.80;7.27;;;;;;;16.61;75.25;100932.37;124817;1102;104069;-82
2023/09/02 04:11:56;;;;;;;13.30;7.25;;;;;;;16.65;75.45;100936.84;124822;1102;102097;-81
2023/09/02 04:14:27;;;;;;;17.57;7.23;;;;;;;16.69;75.21;100937.81;124943;1102;101900;-83
2023/09/02 04:17:01;;;;;;;18.20;7.13;;;;;;;16.73;75.30;100946.70;125450;1102;101941;-84
2023/09/02 04:19:33;;;;;;;17.70;7.42;;;;;;;16.75;75.32;100942.30;124888;1102;104223;-83
2023/09/02 04:22:04;;;;;;;14.83;7.63;;;;;;;16.78;76.06;100948.58;125411;1101;104172;-83
2023/09/02 04:24:37;;;;;;;18.67;7.97;;;;;;;16.81;75.88;100947.72;124931;1102;104172;-83
2023/09/02 04:27:09;;;;;;;17.33;7.77;;;;;;;16.85;75.56;100944.27;124926;1102;102122;-83
2023/09/02 04:29:40;;;;;;;15.77;7.70;;;;;;;16.88;75.33;100947.88;125432;1102;102465;-85
2023/09/02 04:32:12;;;;;;;16.73;7.57;;;;;;;16.93;75.70;100941.78;124821;1102;101889;-87
2023/09/02 04:34:46;;;;;;;15.50;7.40;;;;;;;16.96;75.75;100941.83;125395;1102;102210;-81
2023/09/02 04:37:18;;;;;;;16.23;7.47;;;;;;;17.00;75.58;100944.55;125331;1102;101830;-80
2023/09/02 04:39:51;;;;;;;17.03;7.40;;;;;;;17.05;75.72;100952.59;124808;1102;104275;-81
2023/09/02 04:42:23;;;;;;;13.63;7.63;;;;;;;17.11;75.45;100947.39;125364;1102;102386;-80
2023/09/02 04:44:54;;;;;;;16.47;7.67;;;;;;;17.19;75.54;100951.04;124758;1102;104163;-83
2023/09/02 04:47:27;;;;;;;15.17;7.80;;;;;;;17.24;75.70;100946.69;125341;1102;101910;-83
2023/09/02 04:49:59;;;;;;;15.33;7.20;;;;;;;17.33;75.13;100945.95;125374;1102;101796;-82
2023/09/02 04:52:31;;;;;;;16.07;6.97;;;;;;;17.41;75.45;100956.68;125856;1101;104185;-81
2023/09/02 04:55:03;;;;;;;16.73;7.63;;;;;;;17.48;75.05;100960.30;125263;1102;104262;-84
2023/09/02 04:57:38;;;;;;;16.50;7.83;;;;;;;17.53;75.18;100951.55;125454;1102;104210;-82
2023/09/02 05:00:18;;;;;;;17.07;7.30;;;;;;;17.63;74.88;100954.34;125278;1102;101860;-84
2023/09/02 05:03:00;;;;;;;14.10;7.37;;;;;;;17.72;74.82;100955.34;125332;1102;104824;-83
2023/09/02 05:05:34;;;;;;;17.00;7.43;;;;;;;17.83;74.46;100955.50;124923;1102;104179;-80
2023/09/02 05:08:06;;;;;;;14.87;7.47;;;;;;;17.92;74.38;100955.66;124779;1102;104348;-80
2023/09/02 05:10:38;;;;;;;15.23;7.70;;;;;;;18.05;74.32;100947.84;124774;1102;101922;-79
2023/09/02 05:13:10;;;;;;;15.80;7.75;;;;;;;18.16;74.41;100948.85;124787;1102;104342;-80
2023/09/02 05:15:41;;;;;;;14.63;7.53;;;;;;;18.26;73.90;100945.44;124763;1102;104284;-80
2023/09/02 05:18:13;;;;;;;15.37;7.27;;;;;;;18.33;73.81;100952.58;124775;1102;101900;-80
2023/09/02 05:20:45;;;;;;;14.60;7.70;;;;;;;18.42;73.87;100948.27;124738;1102;102142;-81
2023/09/02 05:23:16;;;;;;;17.57;8.00;;;;;;;18.49;73.57;100944.78;125190;1102;104261;-80
2023/09/02 05:25:48;;;;;;;15.27;7.10;;;;;;;18.57;73.65;100940.42;124783;1102;104354;-81
2023/09/02 05:28:19;;;;;;;14.07;6.80;;;;;;;18.67;73.28;100947.62;124855;1102;104185;-82
2023/09/02 05:30:51;;;;;;;15.17;7.20;;;;;;;18.75;73.12;100941.50;124778;1102;104210;-82
2023/09/02 05:33:24;;;;;;;16.07;7.53;;;;;;;18.84;73.06;100933.61;125340;1102;103728;-81
2023/09/02 05:35:56;;;;;;;16.57;8.03;;;;;;;18.94;72.65;100937.26;124742;1102;101880;-81
2023/09/02 05:38:27;;;;;;;15.53;6.77;;;;;;;19.05;72.74;100935.56;124754;1102;104191;-81
2023/09/02 05:40:58;;;;;;;14.27;7.43;;;;;;;19.12;72.28;100939.16;124759;1102;101833;-82
2023/09/02 05:43:30;;;;;;;15.47;7.13;;;;;;;19.21;72.79;100945.46;125089;1102;101898;-84
2023/09/02 05:46:02;;;;;;;16.55;7.80;;;;;;;19.25;72.46;100937.50;124982;1102;104245;-82
2023/09/02 05:48:34;;;;;;;16.00;7.50;;;;;;;19.32;72.17;100947.28;124890;1102;104192;-80
2023/09/02 05:51:05;;;;;;;17.40;7.87;;;;;;;19.34;71.71;100941.11;124799;1100;104278;-78
2023/09/02 05:53:37;;;;;;;14.40;7.67;;;;;;;19.37;71.48;100951.77;125270;1101;102102;-81
2023/09/02 05:56:08;;;;;;;16.73;7.87;;;;;;;19.42;71.17;100946.48;125995;1102;101810;-80
2023/09/02 05:58:39;;;;;;;18.57;7.50;;;;;;;19.49;71.42;100947.40;124881;1102;102097;-83
2023/09/02 06:01:11;;;;;;;14.50;7.50;;;;;;;19.54;71.63;100945.64;126359;1101;102051;-83
2023/09/02 06:03:44;;;;;;;15.13;7.33;;;;;;;19.60;71.51;100948.34;124898;1102;104245;-84
2023/09/02 06:06:15;;;;;;;19.57;8.10;;;;;;;19.68;70.60;100953.71;126679;1100;102342;-83
2023/09/02 06:08:48;;;;;;;15.50;7.87;;;;;;;19.74;70.90;100952.00;126102;1101;102000;-82
2023/09/02 06:11:19;;;;;;;17.05;8.10;;;;;;;19.83;70.44;100950.28;125032;1102;104269;-82
2023/09/02 06:13:50;;;;;;;13.07;7.13;;;;;;;19.89;70.23;100955.64;124984;1102;102166;-83
2023/09/02 06:16:22;;;;;;;16.50;7.70;;;;;;;19.97;70.86;100951.23;125498;1102;101888;-84
2023/09/02 06:18:53;;;;;;;15.87;7.77;;;;;;;20.03;70.58;100947.71;126505;1102;104104;-84
2023/09/02 06:21:25;;;;;;;18.33;7.90;;;;;;;20.10;70.42;100953.07;126797;1101;101590;-84
2023/09/02 06:23:56;;;;;;;12.83;6.70;;;;;;;20.20;70.13;100951.31;124977;1102;102025;-83
2023/09/02 06:26:28;;;;;;;15.57;7.43;;;;;;;20.32;69.36;100955.81;126068;1101;102684;-83
2023/09/02 06:28:59;;;;;;;15.33;7.00;;;;;;;20.42;69.03;100957.59;127118;1100;101704;-82
2023/09/02 06:31:31;;;;;;;16.53;7.40;;;;;;;20.51;68.51;100961.19;124971;1102;101974;-85
2023/09/02 06:34:02;;;;;;;15.10;7.30;;;;;;;20.61;69.32;100958.52;125473;1102;104179;-80
2023/09/02 06:36:34;;;;;;;12.57;6.17;;;;;;;20.70;68.88;100957.69;126005;1101;101994;-85
2023/09/02 06:39:06;;;;;;;14.77;6.67;;;;;;;20.81;69.20;100955.91;125592;1102;101911;-82
2023/09/02 06:41:37;;;;;;;12.93;6.80;;;;;;;20.94;67.94;100954.16;125273;1102;102096;-80
2023/09/02 06:44:11;;;;;;;11.00;5.83;;;;;;;21.06;68.05;100955.92;125956;1101;101868;-78
2023/09/02 06:46:43;;;;;;;12.63;6.27;;;;;;;21.16;68.15;100955.03;126455;1100;101782;-81
2023/09/02 06:49:14;;;;;;;16.43;6.83;;;;;;;21.31;68.20;100961.24;126666;1101;101916;-78
2023/09/02 06:51:45;;;;;;;12.17;6.20;;;;;;;21.43;68.03;100960.34;124979;1102;104195;-79
2023/09/02 06:54:16;;;;;;;10.43;6.20;;;;;;;21.61;66.85;100964.77;125871;1102;102122;-79
2023/09/02 06:56:48;;;;;;;13.87;6.57;;;;;;;21.77;67.06;100961.19;125348;1102;102006;-78
2023/09/02 06:59:20;;;;;;;12.60;6.33;;;;;;;21.93;66.38;100963.80;126565;1102;101970;-79
2023/09/02 07:01:51;;;;;;;12.00;6.67;;;;;;;22.06;65.92;100955.73;127169;1101;101918;-79
2023/09/02 07:04:22;;;;;;;11.60;6.17;;;;;;;22.18;65.77;100957.44;124885;1102;101986;-80
2023/09/02 07:06:54;;;;;;;10.43;6.43;;;;;;;22.36;65.72;100956.50;125016;1102;102192;-80
2023/09/02 07:09:25;;;;;;;12.40;5.43;;;;;;;22.50;65.27;100955.52;125131;1102;102199;-79
2023/09/02 07:11:57;;;;;;;10.23;5.73;;;;;;;22.61;65.11;100957.23;125420;1101;101772;-78
2023/09/02 07:14:28;;;;;;;11.40;5.43;;;;;;;22.77;65.23;100955.33;126274;1100;101924;-81
2023/09/02 07:16:59;;;;;;;10.10;5.53;;;;;;;22.96;64.95;100949.83;125130;1102;104387;-82
2023/09/02 07:19:31;;;;;;;11.57;5.53;;;;;;;23.17;64.32;100947.90;126068;1101;101732;-81
2023/09/02 07:22:02;;;;;;;11.87;5.90;;;;;;;23.36;63.73;100945.92;124803;1102;101842;-82
2023/09/02 07:24:33;;;;;;;7.57;5.20;;;;;;;23.65;62.32;100949.20;126266;1102;101890;-82
2023/09/02 07:27:05;;;;;;;10.07;5.57;;;;;;;24.00;62.01;100950.59;125430;1102;104179;-81
2023/09/02 07:29:36;;;;;;;9.77;5.63;;;;;;;24.15;62.15;100943.25;125656;1102;101967;-81
2023/09/02 07:32:08;;;;;;;8.00;5.00;;;;;;;24.30;61.13;100950.20;125118;1100;104185;-82
2023/09/02 07:34:41;;;;;;;8.13;5.20;;;;;;;24.46;59.81;100948.19;126088;1101;101833;-80
2023/09/02 07:37:12;;;;;;;7.83;4.58;;;;;;;24.61;60.08;100952.48;124997;1102;104255;-80
2023/09/02 07:39:43;;;;;;;8.83;4.67;;;;;;;24.74;58.79;100948.68;124658;1102;101919;-79
2023/09/02 07:42:15;;;;;;;7.77;4.10;;;;;;;24.88;56.48;100952.02;124604;1102;101981;-79
2023/09/02 07:44:46;;;;;;;8.73;4.00;;;;;;;25.09;56.35;100953.47;124943;1102;104214;-81
2023/09/02 07:47:17;;;;;;;10.43;4.13;;;;;;;25.34;54.96;100947.70;124879;1102;104172;-81
2023/09/02 07:49:49;;;;;;;6.45;3.70;;;;;;;25.42;54.41;100947.56;125226;1101;101830;-82
2023/09/02 07:52:20;;;;;;;7.07;4.07;;;;;;;25.50;52.84;100945.60;126167;1100;101933;-81
2023/09/02 07:54:51;;;;;;;6.83;4.10;;;;;;;25.72;52.26;100951.44;126380;1101;101824;-81
2023/09/02 07:57:23;;;;;;;6.87;4.30;;;;;;;25.88;52.34;100957.38;125451;1100;104172;-85
2023/09/02 07:59:57;;;;;;;6.20;4.03;;;;;;;25.85;52.41;100952.06;125711;1102;101817;-81
2023/09/02 08:02:29;;;;;;;7.13;4.00;;;;;;;25.90;50.92;100963.63;126282;1102;101105;-83
2023/09/02 08:05:00;;;;;;;9.03;4.03;;;;;;;26.07;50.73;100944.49;125734;1102;102339;-82
2023/09/02 08:07:33;;;;;;;8.33;4.10;;;;;;;26.18;50.90;100950.52;126780;1101;102098;-83
2023/09/02 08:10:05;;;;;;;9.88;3.80;;;;;;;26.32;51.21;100949.33;125091;1102;104111;-85
2023/09/02 08:12:36;;;;;;;6.70;4.20;;;;;;;26.43;49.73;100941.89;125465;1102;102044;-82
2023/09/02 08:15:10;;;;;;;6.63;4.00;;;;;;;26.59;49.76;100938.84;124935;1102;104220;-81
2023/09/02 08:17:43;;;;;;;9.98;4.00;;;;;;;26.72;50.11;100935.86;124901;1101;104214;-80
2023/09/02 08:20:14;;;;;;;4.25;3.50;;;;;;;26.82;49.18;100938.33;125027;1102;104188;-82
2023/09/02 08:22:45;;;;;;;6.60;4.10;;;;;;;26.93;48.41;100943.41;125088;1102;104185;-84
2023/09/02 08:25:17;;;;;;;6.47;3.93;;;;;;;27.03;47.25;100943.14;125520;1101;104176;-83
2023/09/02 08:27:49;;;;;;;7.20;3.97;;;;;;;27.11;47.51;100937.55;125087;1102;102028;-79
2023/09/02 08:30:20;;;;;;;6.20;4.00;;;;;;;27.06;46.60;100934.98;125209;1100;104255;-83
2023/09/02 08:32:51;;;;;;;7.13;3.53;;;;;;;27.01;46.46;100942.30;124988;1102;101993;-82
2023/09/02 08:35:23;;;;;;;6.60;4.30;;;;;;;26.94;45.77;100939.80;125096;1102;104165;-83
2023/09/02 08:37:54;;;;;;;8.70;4.03;;;;;;;26.97;45.37;100934.34;125557;1102;102119;-83
2023/09/02 08:40:25;;;;;;;6.37;3.97;;;;;;;26.93;44.86;100941.63;125520;1102;102054;-81
2023/09/02 08:42:57;;;;;;;4.73;3.50;;;;;;;26.96;45.45;100932.56;125100;1101;102100;-82
2023/09/02 08:45:33;;;;;;;5.23;3.40;;;;;;;27.01;43.46;100938.73;125176;1102;104079;-80
2023/09/02 08:48:08;;;;;;;5.67;3.47;;;;;;;27.00;42.60;100923.49;125017;1102;104238;-81
2023/09/02 08:50:40;;;;;;;6.97;3.73;;;;;;;27.04;41.92;100934.15;125054;1102;101984;-83
2023/09/02 08:53:11;;;;;;;6.93;3.73;;;;;;;27.09;42.00;100921.44;125622;1102;101774;-85
2023/09/02 08:55:44;;;;;;;7.77;4.10;;;;;;;27.13;40.87;100938.42;125147;1102;104169;-85
2023/09/02 08:58:16;;;;;;;7.20;3.77;;;;;;;27.22;40.75;100929.19;125348;1102;104197;-82
2023/09/02 09:00:49;;;;;;;5.90;3.47;;;;;;;27.18;40.75;100928.40;124977;1102;104262;-82
2023/09/02 09:03:20;;;;;;;;;;;;;;;27.19;40.48;100922.09;125215;1102;104259;-80
2023/09/02 09:05:52;;;;;;;6.13;3.50;;;;;;;27.22;40.93;100924.71;125400;1102;104251;-80
2023/09/02 09:08:25;;;;;;;5.20;3.70;;;;;;;27.22;40.35;100930.09;126298;1101;101916;-81
2023/09/02 09:10:57;;;;;;;7.20;3.75;;;;;;;27.20;39.98;100925.66;125346;1101;101835;-81
2023/09/02 09:13:30;;;;;;;6.00;3.60;;;;;;;27.20;38.89;100920.28;126395;1100;101810;-82
2023/09/02 09:16:02;;;;;;;5.80;3.67;;;;;;;27.27;39.20;100921.89;125174;1101;104217;-81
2023/09/02 09:18:34;;;;;;;10.58;3.70;;;;;;;27.37;39.07;100920.73;124885;1102;104172;-81
2023/09/02 09:21:05;;;;;;;8.13;3.63;;;;;;;27.49;39.44;100924.91;124858;1102;102003;-80
2023/09/02 09:23:38;;;;;;;4.97;3.73;;;;;;;27.49;38.78;100921.30;124768;1102;104345;-79
2023/09/02 09:26:11;;;;;;;8.05;3.67;;;;;;;27.55;38.88;100922.05;126123;1100;104185;-82
2023/09/02 09:28:55;;;;;;;;;;;;;;;27.55;36.96;100919.34;124981;1102;102016;-81
2023/09/02 09:31:27;;;;;;;5.17;3.40;;;;;;;27.60;37.79;100932.70;124953;1102;104185;-82
2023/09/02 09:34:01;;;;;;;5.17;3.40;;;;;;;27.62;38.00;100918.23;124919;1101;104287;-83
2023/09/02 09:36:35;;;;;;;5.50;3.77;;;;;;;27.62;37.98;100918.23;124954;1101;101875;-81
2023/09/02 09:39:08;;;;;;;7.07;3.70;;;;;;;27.67;37.84;100926.18;124849;1102;104281;-82
2023/09/02 09:41:48;;;;;;;5.40;3.42;;;;;;;27.74;38.26;100911.61;126086;1101;104169;-82
2023/09/02 09:44:20;;;;;;;8.47;3.57;;;;;;;27.82;38.60;100911.39;124959;1102;101874;-82
2023/09/02 09:46:53;;;;;;;4.97;3.30;;;;;;;27.86;37.46;100913.08;126044;1101;104141;-81
2023/09/02 09:49:29;;;;;;;4.08;3.00;;;;;;;27.90;36.39;100912.03;125059;1102;104207;-82
2023/09/02 09:52:13;;;;;;;6.47;3.50;;;;;;;27.87;36.84;100909.42;126504;1101;104176;-81
2023/09/02 09:54:47;;;;;;;5.17;3.10;;;;;;;27.88;36.57;100897.72;125225;1102;104190;-82
2023/09/02 09:57:35;;;;;;;6.37;3.67;;;;;;;27.93;36.27;100895.76;125134;1102;102018;-83
2023/09/02 10:00:16;;;;;;;6.80;3.20;;;;;;;28.02;36.35;100896.44;125513;1102;101963;-82
2023/09/02 10:02:53;;;;;;;6.57;3.37;;;;;;;28.08;36.64;100889.06;125582;1102;104219;-82
2023/09/02 10:05:29;;;;;;;8.05;3.40;;;;;;;28.16;35.93;100896.91;125170;1102;104217;-81
2023/09/02 10:08:02;;;;;;;5.63;3.20;;;;;;;28.14;35.46;100894.27;126179;1102;102057;-81
2023/09/02 10:10:35;;;;;;;5.50;3.00;;;;;;;28.12;35.28;100906.02;125758;1102;102203;-83
2023/09/02 10:13:07;;;;;;;5.65;3.60;;;;;;;28.17;35.48;100893.27;125080;1102;102004;-83
2023/09/02 10:15:40;;;;;;;3.73;3.20;;;;;;;28.16;34.98;100896.91;126540;1101;101787;-82
2023/09/02 10:18:11;;;;;;;3.90;3.00;;;;;;;28.15;35.27;100893.31;125734;1102;101950;-83
2023/09/02 10:20:43;;;;;;;5.23;2.90;;;;;;;28.22;35.45;100888.63;125193;1101;101833;-83
2023/09/02 10:23:15;;;;;;;4.90;3.10;;;;;;;28.33;35.34;100883.77;125003;1102;104089;-84
2023/09/02 10:25:54;;;;;;;4.20;3.03;;;;;;;28.44;35.12;100877.15;124855;1102;104186;-83
2023/09/02 10:28:33;;;;;;;6.37;3.00;;;;;;;28.62;35.54;100881.94;124835;1102;101938;-84
2023/09/02 10:31:07;;;;;;;4.53;3.10;;;;;;;28.67;34.96;100888.09;124878;1102;104178;-82
2023/09/02 10:33:47;;;;;;;3.70;2.70;;;;;;;28.64;34.68;100882.80;124828;1102;104265;-83
2023/09/02 10:36:23;;;;;;;3.60;2.90;;;;;;;28.75;34.83;100873.44;125349;1102;104185;-87
2023/09/02 10:38:58;;;;;;;4.03;3.07;;;;;;;28.82;34.40;100885.80;124965;1102;102195;-84
2023/09/02 10:41:31;;;;;;;3.47;2.57;;;;;;;28.88;33.91;100885.59;125050;1102;104188;-82
2023/09/02 10:44:03;;;;;;;2.70;2.50;;;;;;;28.96;33.57;100879.92;125433;1101;104204;-81
2023/09/02 10:46:35;;;;;;;5.37;3.27;;;;;;;28.99;33.54;100887.92;124727;1102;102089;-81
2023/09/02 10:49:06;;;;;;;4.67;2.93;;;;;;;29.04;33.62;100881.40;124863;1102;104174;-82
2023/09/02 10:51:39;;;;;;;2.97;2.67;;;;;;;29.07;33.29;100882.25;124840;1102;101923;-80
2023/09/02 10:54:11;;;;;;;5.00;2.80;;;;;;;29.02;33.00;100872.48;124821;1101;102169;-83
2023/09/02 10:56:42;;;;;;;3.73;2.80;;;;;;;29.10;33.04;100874.03;126031;1100;102012;-82
2023/09/02 10:59:27;;;;;;;5.37;2.73;;;;;;;29.24;33.33;100879.86;124833;1102;104169;-81
2023/09/02 11:01:58;;;;;;;4.70;2.80;;;;;;;29.31;32.67;100884.11;124915;1102;104239;-82
2023/09/02 11:05:00;;;;;;;5.43;2.60;;;;;;;29.32;32.59;100880.45;124810;1102;104320;-81
2023/09/02 11:07:33;;;;;;;2.90;2.60;;;;;;;29.26;32.20;100871.69;124744;1102;104361;-84
2023/09/02 11:10:04;;;;;;;;;;;;;;;29.30;32.06;100868.83;124830;1102;104175;-81
2023/09/02 11:12:35;;;;;;;3.47;2.60;;;;;;;29.43;32.52;100854.86;124657;1102;101964;-82
2023/09/02 11:15:18;;;;;;;3.20;2.63;;;;;;;29.45;32.04;100859.28;124663;1102;104159;-79
2023/09/02 11:17:50;;;;;;;3.17;2.58;;;;;;;29.48;31.47;100864.57;124848;1102;101951;-83
2023/09/02 11:20:25;;;;;;;5.23;2.67;;;;;;;29.59;31.86;100864.14;124727;1102;102054;-80
2023/09/02 11:23:01;;;;;;;4.90;2.70;;;;;;;29.65;31.33;100858.50;124742;1102;102436;-79
2023/09/02 11:25:36;;;;;;;5.00;2.60;;;;;;;29.75;31.80;100859.92;125861;1101;104223;-81
2023/09/02 11:28:09;;;;;;;2.90;2.70;;;;;;;29.83;31.79;100861.49;125023;1102;104208;-83
2023/09/02 11:31:01;;;;;;;4.22;2.52;;;;;;;29.72;31.25;100851.05;125377;1102;101965;-86